Time;durP1;ratioP1;P1;durP2;ratioP2;P2;SDS_P1;SDS_P2;PMS_P1;PMS_P2;Temp;Humidity;BMP_temperature;BMP_pressure;BME280_temperature;BME280_humidity;BME280_pressure;Samples;Min_cycle;Max_cycle;Signal;HPM_P1;HPM_P2
2021/12/19 00:01:51;;;;;;;1.67;1.30;;;13.40;76.30;;;;;;10540150;28;20222;-82
2021/12/19 00:12:14;;;;;;;2.00;1.80;;;13.50;75.90;;;;;;10520201;28;20232;-81
2021/12/19 00:17:17;;;;;;;2.00;1.50;;;13.10;77.20;;;;;;10538503;28;20260;-81
2021/12/19 00:22:19;;;;;;;5.17;3.03;;;13.20;77.10;;;;;;10525930;28;20227;-81
2021/12/19 00:27:21;;;;;;;3.27;2.13;;;12.70;79.20;;;;;;10521012;28;20287;-81
2021/12/19 00:32:24;;;;;;;2.37;2.17;;;13.00;78.10;;;;;;10572682;28;20226;-80
2021/12/19 00:37:26;;;;;;;3.23;2.30;;;13.20;77.30;;;;;;10538004;28;20316;-81
2021/12/19 00:42:35;;;;;;;3.23;2.00;;;13.30;77.20;;;;;;10520088;28;20305;-80
2021/12/19 00:47:37;;;;;;;2.13;1.80;;;13.00;78.30;;;;;;10520650;28;20698;-81
2021/12/19 00:52:40;;;;;;;2.10;1.80;;;12.90;78.70;;;;;;10537672;28;20234;-80
2021/12/19 00:57:43;;;;;;;3.87;2.43;;;13.20;77.80;;;;;;10538591;28;20251;-81
2021/12/19 01:02:46;;;;;;;3.50;2.80;;;13.30;77.70;;;;;;10520262;28;20203;-80
2021/12/19 01:07:49;;;;;;;2.87;2.57;;;13.00;78.20;;;;;;10520191;28;20194;-81
2021/12/19 01:12:52;;;;;;;3.37;2.40;;;12.80;79.20;;;;;;10537739;28;20235;-81
2021/12/19 01:17:54;;;;;;;3.13;1.93;;;13.20;77.80;;;;;;10536658;28;20334;-81
2021/12/19 01:22:58;;;;;;;4.73;3.83;;;13.40;77.20;;;;;;10538168;28;20285;-81
2021/12/19 01:28:01;;;;;;;2.40;2.00;;;13.40;77.40;;;;;;10519397;28;20674;-81
2021/12/19 01:33:03;;;;;;;2.60;1.77;;;13.40;77.50;;;;;;10518149;28;20288;-80
2021/12/19 01:38:06;;;;;;;4.33;3.13;;;12.70;79.10;;;;;;10517659;28;20801;-80
2021/12/19 01:43:09;;;;;;;3.20;2.60;;;12.80;78.90;;;;;;10517231;28;20230;-81
2021/12/19 01:48:13;;;;;;;4.07;2.23;;;13.10;78.80;;;;;;10516902;28;20218;-81
2021/12/19 01:53:16;;;;;;;2.10;1.77;;;13.40;77.50;;;;;;10517234;28;20233;-80
2021/12/19 01:58:18;;;;;;;5.47;3.33;;;13.30;77.90;;;;;;10516569;28;20653;-80
2021/12/19 02:03:22;;;;;;;4.03;3.07;;;12.90;79.20;;;;;;10516304;28;20626;-80
2021/12/19 02:08:25;;;;;;;4.30;2.30;;;12.70;79.70;;;;;;10535314;28;20285;-81
2021/12/19 02:13:29;;;;;;;4.73;1.90;;;13.20;78.40;;;;;;10516808;28;20281;-80
2021/12/19 02:18:32;;;;;;;5.13;2.47;;;13.20;78.20;;;;;;10511032;28;20257;-80
2021/12/19 02:23:34;;;;;;;6.73;2.60;;;13.40;77.60;;;;;;10518895;28;20200;-81
2021/12/19 02:28:36;;;;;;;3.13;2.07;;;13.10;78.70;;;;;;10519207;28;20227;-81
2021/12/19 02:33:42;;;;;;;8.10;3.87;;;13.10;78.70;;;;;;10508014;28;20316;-81
2021/12/19 02:49:22;;;;;;;4.10;2.70;;;13.20;78.10;;;;;;10525736;28;20218;-80
2021/12/19 02:54:25;;;;;;;3.87;2.77;;;12.90;78.80;;;;;;10518715;28;20302;-81
2021/12/19 02:59:27;;;;;;;6.87;3.33;;;13.20;78.40;;;;;;10477444;28;20200;-81
2021/12/19 03:04:30;;;;;;;3.60;2.37;;;12.00;80.60;;;;;;10528603;28;20222;-81
2021/12/19 03:20:02;;;;;;;2.90;2.60;;;12.50;79.00;;;;;;10531105;28;20219;-80
2021/12/19 03:25:05;;;;;;;3.87;2.27;;;12.80;79.10;;;;;;10533051;28;20238;-81
2021/12/19 03:30:08;;;;;;;7.33;2.20;;;13.40;77.30;;;;;;10497312;28;20200;-80
2021/12/19 03:35:11;;;;;;;5.90;2.17;;;13.50;76.00;;;;;;10531244;28;20305;-80
2021/12/19 03:40:22;;;;;;;1.93;1.63;;;13.10;77.90;;;;;;10531800;28;20266;-80
2021/12/19 03:45:25;;;;;;;3.97;2.27;;;13.40;77.30;;;;;;10532617;28;20240;-81
2021/12/19 03:50:27;;;;;;;3.07;2.27;;;13.00;77.80;;;;;;10532259;28;20569;-81
2021/12/19 03:55:30;;;;;;;3.37;1.80;;;13.10;77.40;;;;;;10531690;28;20280;-80
2021/12/19 04:00:33;;;;;;;2.73;1.90;;;13.20;77.60;;;;;;10513936;28;20231;-81
2021/12/19 04:05:42;;;;;;;7.27;2.57;;;13.00;78.40;;;;;;10513510;28;20677;-80
2021/12/19 04:10:46;;;;;;;4.13;2.10;;;10.90;83.40;;;;;;10531799;28;20630;-80
2021/12/19 04:15:50;;;;;;;4.73;1.83;;;10.60;84.80;;;;;;10511103;28;20266;-80
2021/12/19 04:20:52;;;;;;;8.67;3.10;;;12.50;80.30;;;;;;10531300;28;20283;-80
2021/12/19 04:25:54;;;;;;;3.70;2.03;;;11.90;79.90;;;;;;10534156;28;20230;-80
2021/12/19 04:30:59;;;;;;;2.10;1.80;;;12.20;79.80;;;;;;10520679;28;20264;-80
2021/12/19 04:36:05;;;;;;;2.53;1.83;;;13.20;78.20;;;;;;10551723;28;20291;-80
2021/12/19 04:57:09;;;;;;;3.80;2.57;;;11.30;83.60;;;;;;10519381;28;20261;-80
2021/12/19 05:02:38;;;;;;;2.10;1.90;;;11.20;83.10;;;;;;10536315;28;20256;-80
2021/12/19 05:18:27;;;;;;;2.17;1.70;;;13.10;77.90;;;;;;10518044;28;20253;-80
2021/12/19 05:28:32;;;;;;;4.07;2.13;;;12.40;79.50;;;;;;10536371;28;20247;-81
2021/12/19 05:33:34;;;;;;;2.30;1.87;;;12.50;77.30;;;;;;10535373;28;20229;-80
2021/12/19 05:49:36;;;;;;;3.53;1.70;;;12.90;78.00;;;;;;10405748;28;20332;-81
2021/12/19 05:54:38;;;;;;;1.87;1.77;;;13.20;77.20;;;;;;10405721;28;20342;-80
2021/12/19 05:59:42;;;;;;;3.43;2.03;;;13.40;76.40;;;;;;10405182;28;20229;-80
2021/12/19 06:04:44;;;;;;;2.23;1.50;;;11.90;78.80;;;;;;10404132;28;20274;-81
2021/12/19 06:09:46;;;;;;;4.47;1.80;;;11.80;80.50;;;;;;10400698;28;20331;-81
2021/12/19 06:14:49;;;;;;;4.53;1.60;;;12.20;79.80;;;;;;10404154;28;20379;-80
2021/12/19 06:19:51;;;;;;;3.03;1.87;;;12.70;78.20;;;;;;10404824;28;20276;-81
2021/12/19 06:24:53;;;;;;;1.67;1.57;;;13.10;77.20;;;;;;10513721;28;20601;-80
2021/12/19 06:29:56;;;;;;;3.17;1.67;;;13.10;77.40;;;;;;10533729;28;20683;-80
2021/12/19 06:34:59;;;;;;;2.33;1.80;;;13.10;77.10;;;;;;10531719;28;20279;-80
2021/12/19 06:40:08;;;;;;;4.33;1.90;;;13.30;77.00;;;;;;10514376;28;20295;-80
2021/12/19 06:45:11;;;;;;;3.37;1.70;;;13.00;78.00;;;;;;10533488;28;20222;-80
2021/12/19 06:50:15;;;;;;;1.67;1.57;;;13.30;76.70;;;;;;10540933;28;20262;-80
2021/12/19 06:55:18;;;;;;;2.40;1.40;;;13.40;76.90;;;;;;10529282;28;20739;-80
2021/12/19 07:00:23;;;;;;;1.73;1.40;;;13.50;75.70;;;;;;10532684;28;20592;-80
2021/12/19 07:05:25;;;;;;;2.60;1.77;;;12.90;77.30;;;;;;10514262;28;20733;-80
2021/12/19 07:10:28;;;;;;;2.73;1.47;;;13.10;77.50;;;;;;10532618;28;20630;-80
2021/12/19 07:15:30;;;;;;;2.60;1.50;;;13.10;77.70;;;;;;10513408;28;20674;-81
2021/12/19 07:20:41;;;;;;;3.00;1.80;;;13.00;77.40;;;;;;10532588;28;20226;-80
2021/12/19 07:25:46;;;;;;;2.83;1.70;;;12.90;77.40;;;;;;10531670;28;20617;-81
2021/12/19 07:30:49;;;;;;;2.37;1.73;;;12.50;79.50;;;;;;10532374;28;20295;-81
2021/12/19 07:35:52;;;;;;;2.40;1.97;;;12.10;81.00;;;;;;10512035;28;20588;-81
2021/12/19 07:40:58;;;;;;;3.23;2.60;;;12.90;78.40;;;;;;10531483;28;20219;-81
2021/12/19 07:46:00;;;;;;;2.60;1.60;;;12.50;78.30;;;;;;10512489;28;20288;-81
2021/12/19 07:51:02;;;;;;;2.83;1.40;;;13.00;78.10;;;;;;10513542;28;20223;-81
2021/12/19 07:56:05;;;;;;;2.70;1.70;;;13.10;77.60;;;;;;10531016;28;20236;-81
2021/12/19 08:01:07;;;;;;;4.07;1.67;;;13.30;76.70;;;;;;10517438;28;20289;-81
2021/12/19 08:06:10;;;;;;;1.67;1.57;;;13.20;76.80;;;;;;10520081;28;20637;-81
2021/12/19 08:16:33;;;;;;;3.00;1.60;;;13.20;77.40;;;;;;10538027;28;20298;-81
2021/12/19 08:21:35;;;;;;;2.00;1.37;;;13.40;76.50;;;;;;10521645;28;20257;-81
2021/12/19 08:26:40;;;;;;;2.57;1.70;;;13.40;76.20;;;;;;10521698;28;20675;-81
2021/12/19 08:31:44;;;;;;;2.07;1.63;;;13.20;77.30;;;;;;10534003;28;20289;-80
2021/12/19 08:36:51;;;;;;;2.50;1.93;;;12.90;77.80;;;;;;10538087;28;20251;-81
2021/12/19 08:41:53;;;;;;;2.67;1.93;;;12.50;79.20;;;;;;10538775;28;20229;-81
2021/12/19 08:46:55;;;;;;;2.07;1.63;;;13.40;76.90;;;;;;10538702;28;20249;-81
2021/12/19 08:51:58;;;;;;;3.47;1.93;;;12.70;79.60;;;;;;10500320;28;20227;-81
2021/12/19 08:57:00;;;;;;;1.80;1.43;;;13.30;77.40;;;;;;10536394;28;20779;-80
2021/12/19 09:02:03;;;;;;;1.60;1.40;;;13.10;77.80;;;;;;10517914;28;20265;-80
2021/12/19 09:07:05;;;;;;;3.47;1.40;;;13.50;76.50;;;;;;10517982;28;20214;-80
2021/12/19 09:12:08;;;;;;;2.77;1.90;;;13.60;76.10;;;;;;10534450;28;20301;-79
2021/12/19 09:17:11;;;;;;;3.27;1.70;;;12.90;76.90;;;;;;10518510;28;20721;-80
2021/12/19 09:22:13;;;;;;;3.23;2.30;;;13.20;77.00;;;;;;10538475;28;20232;-80
2021/12/19 09:27:16;;;;;;;3.70;1.90;;;13.10;76.30;;;;;;10518465;28;20257;-80
2021/12/19 09:32:18;;;;;;;2.50;2.07;;;13.30;77.10;;;;;;10518389;28;20211;-80
2021/12/19 09:37:21;;;;;;;2.67;2.13;;;13.20;76.50;;;;;;10517567;28;20281;-80
2021/12/19 09:42:32;;;;;;;2.00;1.77;;;12.80;76.60;;;;;;10532261;28;20290;-80
2021/12/19 09:47:36;;;;;;;3.57;2.07;;;13.30;76.70;;;;;;10532450;28;20241;-80
2021/12/19 09:52:38;;;;;;;3.10;1.70;;;13.40;76.40;;;;;;10514533;28;20237;-80
2021/12/19 09:57:40;;;;;;;4.23;2.07;;;13.00;77.60;;;;;;10497677;28;20251;-80
2021/12/19 10:02:43;;;;;;;4.43;2.37;;;13.00;77.10;;;;;;10514879;28;20282;-81
2021/12/19 10:07:49;;;;;;;3.93;1.93;;;13.40;75.70;;;;;;10534835;28;20231;-79
2021/12/19 10:12:57;;;;;;;2.60;2.10;;;13.50;75.80;;;;;;10512239;28;20229;-80
2021/12/19 10:18:08;;;;;;;4.43;2.00;;;13.60;74.90;;;;;;10496745;28;20606;-79
2021/12/19 10:23:35;;;;;;;2.20;2.00;;;13.60;75.30;;;;;;10510676;28;20216;-79
2021/12/19 10:28:55;;;;;;;2.77;1.60;;;13.50;75.60;;;;;;10516552;28;20628;-79
2021/12/19 10:33:58;;;;;;;2.80;2.07;;;13.80;75.00;;;;;;10512736;28;20916;-79
2021/12/19 10:39:02;;;;;;;5.23;3.00;;;13.60;75.00;;;;;;10512757;28;20690;-79
2021/12/19 10:45:29;;;;;;;5.13;1.87;;;12.00;78.40;;;;;;10510895;28;20276;-79
2021/12/19 10:49:32;;;;;;;4.67;2.20;;;13.00;77.60;;;;;;10529449;28;20231;-78
2021/12/19 10:54:35;;;;;;;4.93;2.37;;;13.40;75.10;;;;;;10511589;28;20303;-78
2021/12/19 10:59:38;;;;;;;4.47;1.97;;;13.60;74.70;;;;;;10527977;28;20306;-79
2021/12/19 11:04:40;;;;;;;3.07;2.00;;;13.20;76.20;;;;;;10508004;28;20683;-79
2021/12/19 11:09:43;;;;;;;4.90;2.50;;;13.40;75.80;;;;;;10529492;28;20260;-80
2021/12/19 11:14:48;;;;;;;4.60;2.50;;;13.50;75.90;;;;;;10512268;28;20277;-79
2021/12/19 11:19:53;;;;;;;3.90;2.30;;;13.40;76.20;;;;;;10529046;28;20256;-80
2021/12/19 11:25:00;;;;;;;4.07;2.13;;;13.50;75.40;;;;;;10510145;28;20628;-79
2021/12/19 11:30:04;;;;;;;2.80;2.53;;;13.50;75.50;;;;;;10512836;28;20230;-79
2021/12/19 11:35:11;;;;;;;4.47;2.27;;;13.50;75.20;;;;;;10513849;28;20235;-80
2021/12/19 11:40:16;;;;;;;3.77;2.10;;;13.20;76.10;;;;;;10501677;28;20690;-80
2021/12/19 11:45:35;;;;;;;3.67;2.97;;;13.50;75.60;;;;;;10536649;28;20232;-79
2021/12/19 11:50:48;;;;;;;3.33;2.53;;;13.00;76.50;;;;;;10516353;28;20231;-80
2021/12/19 11:55:54;;;;;;;4.23;2.47;;;13.40;75.80;;;;;;10516500;28;20244;-80
2021/12/19 12:01:03;;;;;;;3.23;2.17;;;13.40;75.60;;;;;;10533360;28;20281;-80
2021/12/19 12:06:21;;;;;;;2.70;2.43;;;13.50;75.50;;;;;;10517082;28;20231;-80
2021/12/19 12:11:24;;;;;;;3.10;2.17;;;13.50;75.30;;;;;;10518782;28;20209;-80
2021/12/19 12:16:31;;;;;;;5.20;2.87;;;13.60;75.00;;;;;;10534934;28;20264;-80
2021/12/19 12:27:05;;;;;;;4.73;2.73;;;13.40;74.90;;;;;;10532509;28;20232;-80
2021/12/19 12:32:07;;;;;;;3.63;2.70;;;13.50;75.10;;;;;;10513515;28;20232;-79
2021/12/19 12:37:11;;;;;;;5.97;2.67;;;13.60;74.90;;;;;;10533315;28;20246;-80
2021/12/19 12:42:16;;;;;;;6.00;3.20;;;13.20;75.30;;;;;;10534020;28;20228;-80
2021/12/19 12:47:18;;;;;;;5.53;2.40;;;13.40;73.70;;;;;;10517039;28;20735;-80
2021/12/19 12:52:20;;;;;;;6.10;3.17;;;13.40;75.20;;;;;;10485012;28;20236;-80
2021/12/19 12:57:28;;;;;;;5.37;2.40;;;13.50;74.70;;;;;;10479931;28;20309;-80
2021/12/19 13:02:41;;;;;;;3.87;2.20;;;13.50;73.70;;;;;;10518236;28;20241;-81
2021/12/19 13:07:44;;;;;;;4.13;2.50;;;13.60;74.90;;;;;;10550438;28;20612;-80
2021/12/19 13:12:52;;;;;;;6.03;2.97;;;13.40;75.10;;;;;;10353531;28;10000580;-80
2021/12/19 13:17:54;;;;;;;3.80;2.70;;;13.00;75.50;;;;;;10531507;28;20967;-80
2021/12/19 13:23:03;;;;;;;8.77;3.97;;;12.20;77.30;;;;;;10527563;28;20292;-80
2021/12/19 13:28:10;;;;;;;4.17;2.43;;;12.40;77.30;;;;;;10530954;28;20240;-80
2021/12/19 13:33:14;;;;;;;3.83;2.60;;;12.40;79.10;;;;;;10527096;28;20240;-80
2021/12/19 13:38:28;;;;;;;3.77;2.97;;;12.60;77.70;;;;;;10525570;28;20714;-80
2021/12/19 13:43:34;;;;;;;3.83;3.03;;;12.80;76.80;;;;;;10531677;28;20239;-80
2021/12/19 13:48:39;;;;;;;3.80;2.80;;;12.70;77.10;;;;;;10537516;28;20678;-81
2021/12/19 13:53:45;;;;;;;9.63;4.53;;;12.80;77.00;;;;;;10515519;28;20240;-78
2021/12/19 13:58:52;;;;;;;4.63;3.10;;;11.60;78.40;;;;;;10515405;28;20711;-79
2021/12/19 14:03:57;;;;;;;4.73;2.63;;;13.00;77.20;;;;;;10536117;28;20228;-79
2021/12/19 14:09:12;;;;;;;4.13;2.47;;;12.70;78.20;;;;;;10517120;28;20199;-80
2021/12/19 14:14:30;;;;;;;8.43;4.27;;;11.40;82.30;;;;;;10534767;28;20258;-81
2021/12/19 14:19:36;;;;;;;9.23;4.27;;;12.30;84.70;;;;;;10533671;28;20271;-81
2021/12/19 14:24:43;;;;;;;7.10;4.07;;;11.20;90.90;;;;;;10501264;28;20205;-81
2021/12/19 14:29:59;;;;;;;5.67;3.63;;;12.80;90.40;;;;;;10531852;28;20235;-82
2021/12/19 14:35:04;;;;;;;8.03;4.10;;;9.10;91.50;;;;;;10530959;28;20248;-81
2021/12/19 14:40:15;;;;;;;5.70;3.50;;;10.40;93.00;;;;;;10504431;28;20312;-80
2021/12/19 14:45:24;;;;;;;7.17;3.77;;;12.30;86.50;;;;;;10541755;28;20215;-81
2021/12/19 14:50:33;;;;;;;6.07;3.40;;;12.90;83.30;;;;;;10537140;28;20229;-81
2021/12/19 14:55:48;;;;;;;8.30;3.30;;;13.00;81.00;;;;;;10516949;28;20280;-79
2021/12/19 15:00:56;;;;;;;9.07;4.83;;;12.50;83.60;;;;;;10499954;28;20316;-79
2021/12/19 15:06:01;;;;;;;5.20;3.00;;;11.40;85.20;;;;;;10515275;28;20235;-79
2021/12/19 15:11:04;;;;;;;5.47;3.07;;;12.90;82.50;;;;;;10493940;28;20276;-79
2021/12/19 15:16:06;;;;;;;9.60;4.60;;;12.20;84.10;;;;;;10503286;28;20261;-78
2021/12/19 15:21:09;;;;;;;5.33;3.57;;;11.90;84.20;;;;;;10500523;28;20296;-79
2021/12/19 15:26:16;;;;;;;15.50;6.13;;;12.20;83.80;;;;;;10498071;28;20201;-79
2021/12/19 15:31:21;;;;;;;7.73;3.83;;;7.40;99.90;;;;;;10520845;28;20237;-78
2021/12/19 15:36:24;;;;;;;7.40;3.70;;;6.70;99.90;;;;;;10537358;28;20305;-80
2021/12/19 15:41:26;;;;;;;3.20;2.03;;;5.90;99.90;;;;;;10539962;28;20248;-80
2021/12/19 15:46:29;;;;;;;12.23;4.77;;;5.90;99.90;;;;;;10538696;28;20225;-81
2021/12/19 15:51:32;;;;;;;11.33;3.03;;;7.20;99.90;;;;;;10617927;22;20281;-83
2021/12/19 15:56:34;;;;;;;6.43;3.00;;;8.30;99.90;;;;;;10574260;28;20232;-82
2021/12/19 16:01:37;;;;;;;7.03;3.10;;;9.00;99.90;;;;;;10569617;28;20279;-80
2021/12/19 16:06:39;;;;;;;4.67;2.67;;;10.50;99.90;;;;;;10541038;28;20288;-79
2021/12/19 16:11:41;;;;;;;13.53;6.67;;;10.90;98.20;;;;;;10572156;28;20239;-81
2021/12/19 16:16:44;;;;;;;7.47;4.07;;;9.80;99.40;;;;;;10526055;28;20231;-81
2021/12/19 16:21:46;;;;;;;6.93;3.63;;;6.90;99.90;;;;;;10570359;28;20293;-81
2021/12/19 16:26:49;;;;;;;10.00;3.90;;;8.90;99.90;;;;;;10563558;28;20671;-81
2021/12/19 16:31:51;;;;;;;8.53;4.60;;;8.00;99.90;;;;;;10541967;28;20267;-81
2021/12/19 16:36:54;;;;;;;6.07;3.20;;;9.70;99.90;;;;;;10577388;28;20668;-80
2021/12/19 16:43:29;;;;;;;6.77;3.20;;;9.80;99.90;;;;;;10574488;28;20694;-80
2021/12/19 16:47:31;;;;;;;70.00;35.93;;;11.00;99.90;;;;;;10576122;28;20255;-79
2021/12/19 16:52:34;;;;;;;6.00;3.83;;;10.30;99.90;;;;;;10559639;28;20271;-80
2021/12/19 16:57:36;;;;;;;5.40;3.17;;;10.90;99.90;;;;;;10572303;28;20791;-79
2021/12/19 17:02:40;;;;;;;64.00;32.87;;;10.40;99.90;;;;;;10575583;28;20283;-79
2021/12/19 17:07:43;;;;;;;10.70;4.93;;;8.80;94.20;;;;;;10577699;28;20631;-79
2021/12/19 17:12:51;;;;;;;6.23;3.90;;;8.50;99.90;;;;;;10540970;28;20285;-79
2021/12/19 17:17:55;;;;;;;22.17;7.07;;;9.00;99.90;;;;;;10563649;28;20647;-78
2021/12/19 17:22:57;;;;;;;6.00;3.77;;;8.50;96.90;;;;;;10528660;28;20643;-79
2021/12/19 17:28:00;;;;;;;7.67;4.00;;;9.30;99.90;;;;;;10561537;28;20739;-80
2021/12/19 17:33:04;;;;;;;9.00;5.00;;;8.80;99.90;;;;;;10579168;28;20271;-80
2021/12/19 17:44:54;;;;;;;6.30;3.40;;;7.30;99.90;;;;;;10450245;28;20218;-79
2021/12/19 18:06:37;;;;;;;15.03;4.87;;;5.70;99.90;;;;;;10255485;27;10001808;-80
2021/12/19 18:18:40;;;;;;;7.60;4.50;;;6.50;99.90;;;;;;10610293;27;20208;-80
2021/12/19 18:23:42;;;;;;;11.30;5.37;;;5.90;99.90;;;;;;10595839;28;20304;-80
2021/12/19 18:48:51;;;;;;;;;;;;;;;;;;;;;
2021/12/19 19:14:57;;;;;;;12.47;4.80;;;10.80;99.40;;;;;;10556202;28;20692;-80
2021/12/19 20:09:32;;;;;;;5.00;3.23;;;12.80;85.80;;;;;;10500189;28;20245;-80
2021/12/19 20:49:43;;;;;;;6.37;3.30;;;12.90;76.80;;;;;;10434938;28;20213;-80
2021/12/19 20:55:27;;;;;;;4.97;2.93;;;13.10;81.40;;;;;;10446320;28;20235;-79
2021/12/19 21:07:30;;;;;;;5.27;3.60;;;13.20;80.30;;;;;;10427152;28;20254;-81
2021/12/19 21:34:20;;;;;;;7.63;3.53;;;13.10;79.60;;;;;;10459772;28;20225;-80
2021/12/19 22:55:52;;;;;;;4.67;2.37;;;12.70;77.70;;;;;;10555434;28;20196;-80
2021/12/19 23:35:52;;;;;;;5.57;2.23;;;7.60;67.70;;;;;;10611302;27;20486;-80
2021/12/19 23:46:22;;;;;;;4.17;2.13;;;12.40;87.40;;;;;;10521453;28;20311;-80
2021/12/19 23:51:24;;;;;;;4.73;2.77;;;12.80;84.70;;;;;;10494469;28;20731;-80
2021/12/19 23:56:26;;;;;;;6.20;2.13;;;13.00;80.90;;;;;;10505372;28;20239;-79
